Terminal Aerodrome Forecast
Issued by NWS

Home | Current Version | Previous Version | Text Only | Print | Product List | Glossary On
Versions: 1 2 3 4 5 6 7 8 9 10 11 12 13 14 15 16 17 18 19 20 21
000
FTUS43 KAPX 260530
TAFAPN
TAF
KAPN 260530Z 2606/2706 35004KT P6SM OVC007
     FM260900 33004KT 4SM BR OVC008
     FM261400 34005KT P6SM BKN010
     FM261800 36006KT P6SM BKN020
     FM262000 04007KT P6SM BKN025
     FM262200 07006KT P6SM BKN035
     FM270100 13004KT P6SM BKN060=

USA.gov is the U.S. government's official web portal to all federal, state and local government web resources and services.